Upstream stations:
Downstream station:
SHEF ID: QUAO2 Spring River near Quapaw, OK
STATION TYPE:
Regulating: Stage = 20.00, Flow = 33676
PRECIP STAGE STAGE(2) RIV-FLOW BAT-LOAD
in ft ft cfs volt
Ccp-Rev Ccp-Rev Ccp-Rev Ccp-Rev Ccp-Rev
(US/Central)
03/19 00:00 0.00 6.94 7.02 1239 12.08
03/19 01:00 0.00 6.94 7.02 1239 12.06
03/19 02:00 0.00 6.94 7.02 1239 12.06
03/19 03:00 0.00 6.94 7.02 1239 12.06
03/19 04:00 0.00 6.95 7.03 1249 12.07
03/19 05:00 0.00 6.95 7.03 1249 12.04
03/19 06:00 0.00 6.95 7.03 1249 12.04
03/19 07:00 0.00 6.94 7.04 1239 12.04
03/19 08:00 0.00 6.96 7.04 1260 12.07
03/19 09:00 0.00 6.96 7.05 1260 12.30
03/19 10:00 0.00 6.95 7.04 1249 12.94
03/19 11:00 0.00 6.96 7.04 1260 13.50
03/19 12:00 0.00 6.96 7.03 1260 13.52
03/19 13:00 0.00 6.96 7.03 1260 13.51
03/19 14:00 0.00 6.95 7.02 1249 13.31
03/19 15:00 0.00 6.93 6.94 1229 12.93
03/19 16:00 0.00 6.93 7.01 1229 12.83
03/19 17:00 0.00 6.94 6.98 1239 12.71
03/19 18:00 0.00 6.93 7.02 1229 12.57
03/19 19:00 0.00 6.93 7.02 1229 12.44
03/19 20:00 0.00 6.93 7.02 1229 12.14
03/19 21:00 0.00 6.93 7.02 1229 12.14
03/19 22:00 0.00 6.92 7.02 1219 12.07
03/19 23:00 0.00 6.93 7.02 1229 12.07